Halstead, Kansas
Current Conditions -  °F | °C
As of 9:15 PM on Saturday 22 Nov 2014 (Local Time) from KEWK Reporting Station
Overcast Overcast  
Wind Chill: 54°   Ceiling: 1000
Heat Index: 54°   Visibility: 10mi
Dew Point: 48°   Wind: 18mph
Humidity: 82%   Direction: 180°S
Pressure: 29.69"   Gusts: 26mph
Location:  38°N, 97.51°W
Report Text: KEWK 230315Z AUTO 18016G23KT 10SM BKN010 OVC016 12/09 A2969 RMK AO1
Loading
Personal Weather Stations






























Interactive Weather Map New forecast layout! Learn more

10-Day Weather Forecast

Advertisements
Track Severe Weather on mobile